createdAt,value
2023-01-17T00:02:13.170Z,4.10
2023-01-17T00:04:58.029Z,8.20
2023-01-17T00:07:48.241Z,5.03
2023-01-17T00:10:17.935Z,3.80
2023-01-17T00:12:49.873Z,7.87
2023-01-17T00:15:16.661Z,9.10
2023-01-17T00:17:43.108Z,5.27
2023-01-17T00:20:32.232Z,5.27
2023-01-17T00:23:17.575Z,5.40
2023-01-17T00:26:02.930Z,4.90
2023-01-17T00:28:38.195Z,4.07
2023-01-17T00:31:06.139Z,4.45
2023-01-17T00:33:33.064Z,7.10
2023-01-17T00:36:00.859Z,5.93
2023-01-17T00:38:30.164Z,5.57
2023-01-17T00:41:05.387Z,4.13
2023-01-17T00:43:52.981Z,3.67
2023-01-17T00:46:38.925Z,2.97
2023-01-17T00:49:24.329Z,4.27
2023-01-17T00:52:09.293Z,1.83
2023-01-17T00:54:54.747Z,1.97
2023-01-17T00:57:40.010Z,2.43
2023-01-17T01:00:25.948Z,2.03
2023-01-17T01:03:10.789Z,4.50
2023-01-17T01:05:56.675Z,1.50
2023-01-17T01:08:44.081Z,2.63
2023-01-17T01:11:34.894Z,4.43
2023-01-17T01:14:20.383Z,2.00
2023-01-17T01:17:08.031Z,1.93
2023-01-17T01:19:52.807Z,2.47
2023-01-17T01:22:38.223Z,4.30
2023-01-17T01:25:23.441Z,4.57
2023-01-17T01:28:08.254Z,6.90
2023-01-17T01:30:53.199Z,3.73
2023-01-17T01:33:19.651Z,1.63
2023-01-17T01:35:56.235Z,3.33
2023-01-17T01:38:24.876Z,3.30
2023-01-17T01:40:56.641Z,3.00
2023-01-17T01:43:45.752Z,2.90
2023-01-17T01:46:25.477Z,5.57
2023-01-17T01:49:05.607Z,4.17
2023-01-17T01:51:36.497Z,3.37
2023-01-17T01:54:14.223Z,4.90
2023-01-17T01:56:41.578Z,2.77
2023-01-17T01:59:11.205Z,3.07
2023-01-17T02:01:37.737Z,2.90
2023-01-17T02:04:09.773Z,5.03
2023-01-17T02:07:00.744Z,3.45
2023-01-17T02:09:27.756Z,4.60
2023-01-17T02:11:54.666Z,5.07
2023-01-17T02:14:22.485Z,5.57
2023-01-17T02:17:33.373Z,5.37
2023-01-17T02:20:28.582Z,4.93
2023-01-17T02:23:13.442Z,5.60
2023-01-17T02:25:58.530Z,3.93
2023-01-17T02:28:43.080Z,2.23
2023-01-17T02:31:14.854Z,4.90
2023-01-17T02:33:55.648Z,4.75
2023-01-17T02:36:56.043Z,4.30
2023-01-17T02:39:28.574Z,2.43
2023-01-17T02:42:02.487Z,2.83
2023-01-17T02:44:28.992Z,4.80
2023-01-17T02:46:59.228Z,5.57
2023-01-17T02:49:30.021Z,3.80
2023-01-17T02:52:15.285Z,6.90
2023-01-17T02:55:07.252Z,6.27
2023-01-17T02:57:51.973Z,5.15
2023-01-17T03:00:46.782Z,3.70
2023-01-17T03:03:54.496Z,2.70
2023-01-17T03:06:31.180Z,5.33
2023-01-17T03:08:57.580Z,4.73
2023-01-17T03:11:23.986Z,5.47
2023-01-17T03:13:55.683Z,7.37
2023-01-17T03:16:25.046Z,6.75
2023-01-17T03:18:54.480Z,3.90
2023-01-17T03:21:22.060Z,3.07
2023-01-17T03:23:48.479Z,3.33
2023-01-17T03:26:15.142Z,4.17
2023-01-17T03:28:41.858Z,6.90
2023-01-17T03:31:08.248Z,4.10
2023-01-17T03:33:36.511Z,3.60
2023-01-17T03:36:03.004Z,5.43
2023-01-17T03:38:30.392Z,7.47
2023-01-17T03:40:56.988Z,1.90
2023-01-17T03:43:23.421Z,2.67
2023-01-17T03:45:51.893Z,2.90
2023-01-17T03:48:18.615Z,7.30
2023-01-17T03:50:45.033Z,3.53
2023-01-17T03:53:11.433Z,5.37
2023-01-17T03:55:37.776Z,5.00
2023-01-17T03:58:04.174Z,1.80
2023-01-17T04:00:30.665Z,3.87
2023-01-17T04:02:57.140Z,4.57
2023-01-17T04:05:23.555Z,1.80
2023-01-17T04:07:51.513Z,5.23
2023-01-17T04:10:18.253Z,2.10
2023-01-17T04:12:44.752Z,5.83
2023-01-17T04:15:13.740Z,2.77
2023-01-17T04:17:40.355Z,3.00
2023-01-17T04:20:07.391Z,6.07
2023-01-17T04:22:33.828Z,5.17
2023-01-17T04:25:00.244Z,2.67
2023-01-17T04:27:26.636Z,8.90
2023-01-17T04:29:52.985Z,3.07
2023-01-17T04:32:19.356Z,6.47
2023-01-17T04:34:48.523Z,4.20
2023-01-17T04:37:14.953Z,2.90
2023-01-17T04:39:41.337Z,1.97
2023-01-17T04:42:07.708Z,5.90
2023-01-17T04:44:34.136Z,4.80
2023-01-17T04:47:02.020Z,5.07
2023-01-17T04:49:28.479Z,5.20
2023-01-17T04:51:54.887Z,7.40
2023-01-17T04:54:21.258Z,4.67
2023-01-17T04:56:47.613Z,3.90
2023-01-17T04:59:14.044Z,5.93
2023-01-17T05:01:40.573Z,5.10
2023-01-17T05:04:07.035Z,2.83
2023-01-17T05:06:33.453Z,5.17
2023-01-17T05:08:59.972Z,6.87
2023-01-17T05:11:26.335Z,14.33
2023-01-17T05:13:52.713Z,5.20
2023-01-17T05:16:19.487Z,7.17
2023-01-17T05:18:47.278Z,7.23
2023-01-17T05:21:13.740Z,9.50
2023-01-17T05:23:40.555Z,7.33
2023-01-17T05:26:07.122Z,4.00
2023-01-17T05:28:33.645Z,4.53
2023-01-17T05:31:00.141Z,5.07
2023-01-17T05:33:27.016Z,7.17
2023-01-17T05:35:53.573Z,5.23
2023-01-17T05:38:23.607Z,5.63
2023-01-17T05:40:50.287Z,2.57
2023-01-17T05:43:16.709Z,4.77
2023-01-17T05:45:43.087Z,2.50
2023-01-17T05:48:12.283Z,7.93
2023-01-17T05:50:38.658Z,5.83
2023-01-17T05:53:11.241Z,2.90
2023-01-17T05:55:38.775Z,4.23
2023-01-17T05:58:06.395Z,4.77
2023-01-17T06:00:32.900Z,4.77
2023-01-17T06:03:00.579Z,2.63
2023-01-17T06:05:28.178Z,4.03
2023-01-17T06:07:54.867Z,5.10
2023-01-17T06:10:22.193Z,3.53
2023-01-17T06:12:49.007Z,4.50
2023-01-17T06:15:17.365Z,5.47
2023-01-17T06:17:43.823Z,3.70
2023-01-17T06:20:11.797Z,5.77
2023-01-17T06:22:38.311Z,2.73
2023-01-17T06:25:05.546Z,5.90
2023-01-17T06:27:31.913Z,5.17
2023-01-17T06:29:58.334Z,6.67
2023-01-17T06:32:24.697Z,2.40
2023-01-17T06:34:51.051Z,3.47
2023-01-17T06:37:17.445Z,5.50
2023-01-17T06:39:43.958Z,2.70
2023-01-17T06:42:10.414Z,3.47
2023-01-17T06:44:36.843Z,4.27
2023-01-17T06:47:03.307Z,6.97
2023-01-17T06:49:29.754Z,3.93
2023-01-17T06:51:56.199Z,3.90
2023-01-17T06:54:22.730Z,6.73
2023-01-17T06:56:49.243Z,4.07
2023-01-17T06:59:15.635Z,8.73
2023-01-17T07:01:47.963Z,7.13
2023-01-17T07:06:40.661Z,4.93
2023-01-17T07:09:07.118Z,3.23
2023-01-17T07:11:33.517Z,5.63
2023-01-17T07:13:59.984Z,3.63
2023-01-17T07:16:26.656Z,5.60
2023-01-17T07:18:54.652Z,3.73
2023-01-17T07:21:20.996Z,3.47
2023-01-17T07:23:48.171Z,5.63
2023-01-17T07:26:16.782Z,4.00
2023-01-17T07:28:43.352Z,6.07
2023-01-17T07:31:10.332Z,3.60
2023-01-17T07:33:39.248Z,7.13
2023-01-17T07:36:09.857Z,4.97
2023-01-17T07:38:38.641Z,4.60
2023-01-17T07:41:05.147Z,4.23
2023-01-17T07:43:31.615Z,3.83
2023-01-17T07:46:00.807Z,6.23
2023-01-17T07:48:28.527Z,6.90
2023-01-17T07:50:57.082Z,4.00
2023-01-17T07:53:25.590Z,13.83
2023-01-17T07:55:52.292Z,6.50
2023-01-17T07:58:18.811Z,4.50
2023-01-17T08:00:45.503Z,4.93
2023-01-17T08:03:17.209Z,4.57
2023-01-17T08:05:53.025Z,6.82
2023-01-17T08:08:19.658Z,5.07
2023-01-17T08:10:46.139Z,5.97
2023-01-17T08:13:12.508Z,4.17
2023-01-17T08:15:41.212Z,5.83
2023-01-17T08:18:10.333Z,4.03
2023-01-17T08:20:36.748Z,6.30
2023-01-17T08:23:03.290Z,4.57
2023-01-17T08:25:29.682Z,8.37
2023-01-17T08:27:58.093Z,5.43
2023-01-17T08:30:25.650Z,9.63
2023-01-17T08:32:52.392Z,5.53
2023-01-17T08:35:20.181Z,2.87
2023-01-17T08:37:47.826Z,2.17
2023-01-17T08:40:18.669Z,4.77
2023-01-17T08:42:45.305Z,5.27
2023-01-17T08:45:13.055Z,7.67
2023-01-17T08:47:39.471Z,6.37
2023-01-17T08:50:06.869Z,3.93
2023-01-17T08:52:33.930Z,8.20
2023-01-17T08:55:00.302Z,5.00
2023-01-17T08:57:26.701Z,23.30
2023-01-17T08:59:53.097Z,3.83
2023-01-17T09:02:19.901Z,5.20
2023-01-17T09:04:48.204Z,5.33
2023-01-17T09:07:17.462Z,7.07
2023-01-17T09:09:43.861Z,11.40
2023-01-17T09:12:10.798Z,4.00
2023-01-17T09:14:37.755Z,6.83
2023-01-17T09:17:06.795Z,4.47
2023-01-17T09:19:33.378Z,5.60
2023-01-17T09:21:59.841Z,8.83
2023-01-17T09:24:26.251Z,5.50
2023-01-17T09:26:52.660Z,5.90
2023-01-17T09:29:19.080Z,5.27
2023-01-17T09:31:47.377Z,6.80
2023-01-17T09:34:14.441Z,6.18
2023-01-17T09:36:41.886Z,5.78
2023-01-17T09:39:11.011Z,3.67
2023-01-17T09:41:48.751Z,4.80
2023-01-17T09:44:43.911Z,5.32
2023-01-17T09:47:42.118Z,7.85
2023-01-17T09:50:29.936Z,4.07
2023-01-17T09:53:01.523Z,7.18
2023-01-17T09:55:53.032Z,6.20
2023-01-17T09:58:43.890Z,3.70
2023-01-17T10:01:38.479Z,3.20
2023-01-17T10:04:48.903Z,6.75
2023-01-17T10:08:12.653Z,8.52
2023-01-17T10:11:01.582Z,10.32
2023-01-17T10:13:39.992Z,5.53
2023-01-17T10:16:24.702Z,2.45
2023-01-17T10:19:28.071Z,6.30
2023-01-17T10:22:19.503Z,4.85
2023-01-17T10:25:23.578Z,3.38
2023-01-17T10:28:05.066Z,6.93
2023-01-17T10:30:43.618Z,8.80
2023-01-17T10:33:17.920Z,6.75
2023-01-17T10:36:27.774Z,4.45
2023-01-17T10:39:02.281Z,4.95
2023-01-17T10:41:40.200Z,3.83
2023-01-17T10:44:22.833Z,4.65
2023-01-17T10:47:06.739Z,5.38
2023-01-17T10:49:33.198Z,3.47
2023-01-17T10:52:08.364Z,4.35
2023-01-17T10:55:16.935Z,6.18
2023-01-17T10:57:46.291Z,6.47
2023-01-17T11:00:28.134Z,5.75
2023-01-17T11:02:54.555Z,7.75
2023-01-17T11:05:29.850Z,2.67
2023-01-17T11:08:14.673Z,5.45
2023-01-17T11:10:48.752Z,2.80
2023-01-17T11:13:23.762Z,5.03
2023-01-17T11:15:57.528Z,4.35
2023-01-17T11:18:28.071Z,5.03
2023-01-17T11:21:16.391Z,4.97
2023-01-17T11:23:46.115Z,10.82
2023-01-17T11:26:23.492Z,6.82
2023-01-17T11:28:51.789Z,5.47
2023-01-17T11:31:18.248Z,6.60
2023-01-17T11:33:54.003Z,4.22
2023-01-17T11:36:28.836Z,7.85
2023-01-17T11:39:22.343Z,3.72
2023-01-17T11:41:48.747Z,4.63
2023-01-17T11:44:32.110Z,3.63
2023-01-17T11:47:13.611Z,6.90
2023-01-17T11:49:41.974Z,4.78
2023-01-17T11:52:17.610Z,3.35
2023-01-17T11:54:47.669Z,5.97
2023-01-17T11:57:27.829Z,4.13
2023-01-17T12:00:05.087Z,3.05
2023-01-17T12:02:57.917Z,4.07
2023-01-17T12:05:39.783Z,4.38
2023-01-17T12:11:17.212Z,4.13
2023-01-17T12:14:00.932Z,4.82
2023-01-17T12:17:06.783Z,8.73
2023-01-17T12:20:01.081Z,3.22
2023-01-17T12:22:44.672Z,4.57
2023-01-17T12:25:14.767Z,2.78
2023-01-17T12:27:53.123Z,4.53
2023-01-17T12:30:53.601Z,4.10
2023-01-17T12:33:33.134Z,3.25
2023-01-17T12:36:09.285Z,4.95
2023-01-17T12:38:38.545Z,3.58
2023-01-17T12:41:20.841Z,4.03
2023-01-17T12:43:47.877Z,3.97
2023-01-17T12:46:45.684Z,3.88
2023-01-17T12:49:33.618Z,5.65
2023-01-17T12:52:12.696Z,4.85
2023-01-17T12:54:46.425Z,2.75
2023-01-17T12:57:21.923Z,3.95
2023-01-17T13:00:14.027Z,4.60
2023-01-17T13:02:44.701Z,5.68
2023-01-17T13:05:23.714Z,3.53
2023-01-17T13:08:02.178Z,3.33
2023-01-17T13:10:35.399Z,3.65
2023-01-17T13:13:24.077Z,5.10
2023-01-17T13:15:55.004Z,4.20
2023-01-17T13:18:26.225Z,3.47
2023-01-17T13:21:31.226Z,3.25
2023-01-17T13:23:59.345Z,3.63
2023-01-17T13:26:44.858Z,4.30
2023-01-17T13:29:48.660Z,4.78
2023-01-17T13:32:51.273Z,2.45
2023-01-17T13:35:53.182Z,5.13
2023-01-17T13:38:54.775Z,3.22
2023-01-17T13:41:42.243Z,5.68
2023-01-17T13:44:24.328Z,2.88
2023-01-17T13:49:28.288Z,3.00
2023-01-17T13:52:28.528Z,2.17
2023-01-17T13:54:57.479Z,2.47
2023-01-17T13:57:29.355Z,2.30
2023-01-17T13:59:58.022Z,2.40
2023-01-17T14:02:33.576Z,3.83
2023-01-17T14:05:07.725Z,4.05
2023-01-17T14:07:40.408Z,2.78
2023-01-17T14:10:26.856Z,4.28
2023-01-17T14:12:54.691Z,3.33
2023-01-17T14:15:27.142Z,4.65
2023-01-17T14:17:59.437Z,3.05
2023-01-17T14:20:25.779Z,6.40
2023-01-17T14:23:02.282Z,2.90
2023-01-17T14:25:30.836Z,5.03
2023-01-17T14:28:04.329Z,2.22
2023-01-17T14:30:38.650Z,2.20
2023-01-17T14:33:19.360Z,3.90
2023-01-17T14:35:52.386Z,2.83
2023-01-17T14:38:20.963Z,1.20
2023-01-17T14:40:57.542Z,3.33
2023-01-17T14:43:28.049Z,2.47
2023-01-17T14:46:03.555Z,1.73
2023-01-17T14:48:30.137Z,2.22
2023-01-17T14:51:00.073Z,2.40
2023-01-17T14:53:31.523Z,2.33
2023-01-17T14:56:01.677Z,2.67
2023-01-17T14:58:30.902Z,1.75
2023-01-17T15:01:01.145Z,2.63
2023-01-17T15:03:30.262Z,2.10
2023-01-17T15:06:04.791Z,2.00
2023-01-17T15:08:35.734Z,4.05
2023-01-17T15:11:05.819Z,3.58
2023-01-17T15:13:44.184Z,3.22
2023-01-17T15:16:35.758Z,3.08
2023-01-17T15:19:09.255Z,2.75
2023-01-17T15:21:42.635Z,2.70
2023-01-17T15:24:18.178Z,2.40
2023-01-17T15:26:45.330Z,3.72
2023-01-17T15:29:27.093Z,6.88
2023-01-17T15:31:58.344Z,2.13
2023-01-17T15:34:32.431Z,4.47
2023-01-17T15:37:02.403Z,4.65
2023-01-17T15:39:33.769Z,3.25
2023-01-17T15:42:03.567Z,7.70
2023-01-17T15:44:48.045Z,3.60
2023-01-17T15:47:32.298Z,4.15
2023-01-17T15:50:00.228Z,1.30
2023-01-17T15:52:27.457Z,2.17
2023-01-17T15:54:58.903Z,3.20
2023-01-17T15:57:37.133Z,4.97
2023-01-17T16:00:08.632Z,2.35
2023-01-17T16:02:38.791Z,2.85
2023-01-17T16:05:24.188Z,6.30
2023-01-17T16:07:52.835Z,5.43
2023-01-17T16:10:22.529Z,3.17
2023-01-17T16:12:53.794Z,3.83
2023-01-17T16:15:21.983Z,2.63
2023-01-17T16:17:51.506Z,2.88
2023-01-17T16:20:22.254Z,4.82
2023-01-17T16:22:49.835Z,3.72
2023-01-17T16:25:22.088Z,3.80
2023-01-17T16:27:49.562Z,5.30
2023-01-17T16:30:19.075Z,4.32
2023-01-17T16:32:48.417Z,7.63
2023-01-17T16:35:20.716Z,6.05
2023-01-17T16:37:52.325Z,5.55
2023-01-17T16:40:21.246Z,5.22
2023-01-17T16:42:48.264Z,8.02
2023-01-17T16:45:15.418Z,5.85
2023-01-17T16:47:46.478Z,7.88
2023-01-17T16:50:15.551Z,6.13
2023-01-17T16:52:41.973Z,6.30
2023-01-17T16:55:13.134Z,8.48
2023-01-17T16:57:39.830Z,6.80
2023-01-17T17:00:09.800Z,7.80
2023-01-17T17:02:38.222Z,7.40
2023-01-17T17:05:07.233Z,7.03
2023-01-17T17:07:35.993Z,6.28
2023-01-17T17:10:02.360Z,6.15
2023-01-17T17:12:28.726Z,13.07
2023-01-17T17:14:55.132Z,15.90
2023-01-17T17:17:21.653Z,20.65
2023-01-17T17:19:48.475Z,17.55
2023-01-17T17:22:14.835Z,14.18
2023-01-17T17:24:42.370Z,9.93
2023-01-17T17:27:08.893Z,9.02
2023-01-17T17:29:36.022Z,8.52
2023-01-17T17:32:02.396Z,13.93
2023-01-17T17:34:32.794Z,16.25
2023-01-17T17:37:03.706Z,22.80
2023-01-17T17:39:30.323Z,27.52
2023-01-17T17:41:57.082Z,29.58
2023-01-17T17:44:23.538Z,37.17
2023-01-17T17:46:51.275Z,40.73
2023-01-17T17:49:17.700Z,24.45
2023-01-17T17:51:48.005Z,20.13
2023-01-17T17:54:15.888Z,20.20
2023-01-17T17:56:46.467Z,17.23
2023-01-17T17:59:18.283Z,18.38
2023-01-17T18:01:45.706Z,16.17
2023-01-17T18:04:12.446Z,20.42
2023-01-17T18:06:39.737Z,16.57
2023-01-17T18:09:08.179Z,16.53
2023-01-17T18:11:36.315Z,14.70
2023-01-17T18:14:05.218Z,18.40
2023-01-17T18:16:37.770Z,16.57
2023-01-17T18:19:07.008Z,16.17
2023-01-17T18:21:36.456Z,15.73
2023-01-17T18:24:09.204Z,14.40
2023-01-17T18:26:47.845Z,14.25
2023-01-17T18:29:16.280Z,13.53
2023-01-17T18:31:46.845Z,11.10
2023-01-17T18:34:24.197Z,13.10
2023-01-17T18:36:51.679Z,14.23
2023-01-17T18:39:24.500Z,16.70
2023-01-17T18:41:51.179Z,17.40
2023-01-17T18:44:21.815Z,17.10
2023-01-17T18:46:50.074Z,20.47
2023-01-17T18:49:18.966Z,22.93
2023-01-17T18:51:50.203Z,19.40
2023-01-17T18:54:17.698Z,17.27
2023-01-17T18:56:44.267Z,16.30
2023-01-17T18:59:18.068Z,10.20
2023-01-17T19:01:46.910Z,10.33
2023-01-17T19:04:14.620Z,8.23
2023-01-17T19:06:43.603Z,14.80
2023-01-17T19:09:11.940Z,11.80
2023-01-17T19:11:39.584Z,11.97
2023-01-17T19:14:06.841Z,8.13
2023-01-17T19:16:39.508Z,7.20
2023-01-17T19:19:09.441Z,10.27
2023-01-17T19:21:36.421Z,14.30
2023-01-17T19:24:03.303Z,14.10
2023-01-17T19:26:30.044Z,11.73
2023-01-17T19:28:58.708Z,12.27
2023-01-17T19:31:30.510Z,10.37
2023-01-17T19:33:58.513Z,11.30
2023-01-17T19:36:32.125Z,11.90
2023-01-17T19:39:04.821Z,10.40
2023-01-17T19:41:33.442Z,11.07
2023-01-17T19:44:01.935Z,13.00
2023-01-17T19:46:29.032Z,11.90
2023-01-17T19:48:57.352Z,14.23
2023-01-17T19:51:25.057Z,15.53
2023-01-17T19:53:51.551Z,13.80
2023-01-17T19:56:21.102Z,11.33
2023-01-17T19:58:48.126Z,12.20
2023-01-17T20:01:20.355Z,11.53
2023-01-17T20:06:16.944Z,14.23
2023-01-17T20:08:43.928Z,12.47
2023-01-17T20:11:14.732Z,8.53
2023-01-17T20:13:45.163Z,11.70
2023-01-17T20:16:14.384Z,12.77
2023-01-17T20:18:41.374Z,11.67
2023-01-17T20:21:14.494Z,15.10
2023-01-17T20:23:42.857Z,17.33
2023-01-17T20:26:14.340Z,14.40
2023-01-17T20:28:42.512Z,11.67
2023-01-17T20:31:14.547Z,10.70
2023-01-17T20:33:43.133Z,11.63
2023-01-17T20:36:12.631Z,11.57
2023-01-17T20:38:46.985Z,7.80
2023-01-17T20:41:21.967Z,8.53
2023-01-17T20:43:51.025Z,9.40
2023-01-17T20:46:19.063Z,8.50
2023-01-17T20:48:46.099Z,10.07
2023-01-17T20:51:13.240Z,7.97
2023-01-17T20:53:41.583Z,8.87
2023-01-17T20:56:09.135Z,8.47
2023-01-17T20:58:35.795Z,9.87
2023-01-17T21:01:02.658Z,10.53
2023-01-17T21:03:29.337Z,6.63
2023-01-17T21:06:03.529Z,6.83
2023-01-17T21:08:33.996Z,7.93
2023-01-17T21:11:01.306Z,10.00
2023-01-17T21:13:28.387Z,8.63
2023-01-17T21:15:55.186Z,9.90
2023-01-17T21:18:23.654Z,10.63
2023-01-17T21:20:50.826Z,11.57
2023-01-17T21:23:18.209Z,7.97
2023-01-17T21:25:55.734Z,8.23
2023-01-17T21:28:27.338Z,8.03
2023-01-17T21:30:54.114Z,6.50
2023-01-17T21:33:22.023Z,9.43
2023-01-17T21:35:48.987Z,11.87
2023-01-17T21:38:15.966Z,6.27
2023-01-17T21:40:43.700Z,6.60
2023-01-17T21:43:10.897Z,11.03
2023-01-17T21:45:38.433Z,7.70
2023-01-17T21:48:06.724Z,15.80
2023-01-17T21:50:34.222Z,14.40
2023-01-17T21:53:00.860Z,7.50
2023-01-17T21:55:46.100Z,7.40
2023-01-17T21:58:38.044Z,10.27
2023-01-17T22:01:21.518Z,9.60
2023-01-17T22:04:07.110Z,6.47
2023-01-17T22:06:39.265Z,6.53
2023-01-17T22:09:06.267Z,9.23
2023-01-17T22:11:36.602Z,9.67
2023-01-17T22:14:07.288Z,9.63
2023-01-17T22:16:33.870Z,7.30
2023-01-17T22:19:00.420Z,9.23
2023-01-17T22:21:28.289Z,10.00
2023-01-17T22:24:01.917Z,8.20
2023-01-17T22:26:30.237Z,9.20
2023-01-17T22:28:59.857Z,12.40
2023-01-17T22:31:27.941Z,8.30
2023-01-17T22:33:59.551Z,7.10
2023-01-17T22:36:26.602Z,13.63
2023-01-17T22:38:53.505Z,7.23
2023-01-17T22:41:22.891Z,10.27
2023-01-17T22:43:53.611Z,10.47
2023-01-17T22:46:25.710Z,9.47
2023-01-17T22:48:53.472Z,16.02
2023-01-17T22:51:21.685Z,8.13
2023-01-17T22:53:50.863Z,9.93
2023-01-17T22:56:20.246Z,8.37
2023-01-17T22:58:49.051Z,10.67
2023-01-17T23:01:27.332Z,10.43
2023-01-17T23:03:56.955Z,8.93
2023-01-17T23:06:27.507Z,7.63
2023-01-17T23:08:56.125Z,9.00
2023-01-17T23:11:46.235Z,11.10
2023-01-17T23:14:24.058Z,9.30
2023-01-17T23:17:18.214Z,8.40
2023-01-17T23:19:49.394Z,7.73
2023-01-17T23:22:22.061Z,8.63
2023-01-17T23:25:06.187Z,10.43
2023-01-17T23:27:54.732Z,10.93
2023-01-17T23:30:28.677Z,10.63
2023-01-17T23:32:58.377Z,8.50
2023-01-17T23:35:26.929Z,8.80
2023-01-17T23:38:12.244Z,8.70
2023-01-17T23:40:39.360Z,12.23
2023-01-17T23:43:23.957Z,14.47
2023-01-17T23:45:54.555Z,12.47
2023-01-17T23:48:23.843Z,13.70
2023-01-17T23:50:50.252Z,9.87
2023-01-17T23:53:22.759Z,11.33
2023-01-17T23:55:51.612Z,11.67
2023-01-17T23:58:19.808Z,12.60
